createdAt,value
2023-05-05T00:00:15.228Z,31.45
2023-05-05T00:01:15.255Z,31.44
2023-05-05T00:02:15.253Z,31.43
2023-05-05T00:03:15.392Z,31.40
2023-05-05T00:04:15.370Z,31.40
2023-05-05T00:05:15.353Z,31.42
2023-05-05T00:06:15.379Z,31.43
2023-05-05T00:07:15.444Z,31.45
2023-05-05T00:08:15.439Z,31.43
2023-05-05T00:09:15.474Z,31.41
2023-05-05T00:10:15.523Z,31.41
2023-05-05T00:11:15.579Z,31.42
2023-05-05T00:12:15.613Z,31.40
2023-05-05T00:13:15.611Z,31.39
2023-05-05T00:14:15.653Z,31.35
2023-05-05T00:15:15.711Z,31.38
2023-05-05T00:16:15.741Z,31.41
2023-05-05T00:17:15.797Z,31.38
2023-05-05T00:18:15.829Z,31.34
2023-05-05T00:19:15.827Z,31.38
2023-05-05T00:20:15.921Z,31.38
2023-05-05T00:21:15.911Z,31.36
2023-05-05T00:22:15.938Z,31.34
2023-05-05T00:23:15.996Z,31.38
2023-05-05T00:24:16.021Z,31.37
2023-05-05T00:25:16.036Z,31.33
2023-05-05T00:26:16.047Z,31.35
2023-05-05T00:27:16.168Z,31.33
2023-05-05T00:28:16.100Z,31.35
2023-05-05T00:29:16.171Z,31.36
2023-05-05T00:30:16.179Z,31.34
2023-05-05T00:31:16.285Z,31.33
2023-05-05T00:32:16.260Z,31.32
2023-05-05T00:33:16.292Z,31.33
2023-05-05T00:34:16.316Z,31.34
2023-05-05T00:35:16.364Z,31.33
2023-05-05T00:36:16.370Z,31.32
2023-05-05T00:37:16.396Z,31.31
2023-05-05T00:38:16.436Z,31.33
2023-05-05T00:39:16.507Z,31.30
2023-05-05T00:40:16.530Z,31.34
2023-05-05T00:41:16.556Z,31.28
2023-05-05T00:42:16.570Z,31.26
2023-05-05T00:43:16.609Z,31.29
2023-05-05T00:44:16.651Z,31.27
2023-05-05T00:45:16.682Z,31.28
2023-05-05T00:46:16.710Z,31.28
2023-05-05T00:47:16.783Z,31.29
2023-05-05T00:48:16.801Z,31.26
2023-05-05T00:49:16.856Z,31.27
2023-05-05T00:50:16.837Z,31.24
2023-05-05T00:51:16.877Z,31.24
2023-05-05T00:52:16.899Z,31.26
2023-05-05T00:53:16.943Z,31.28
2023-05-05T00:54:16.938Z,31.25
2023-05-05T00:55:17.047Z,31.26
2023-05-05T00:56:17.037Z,31.22
2023-05-05T00:57:17.078Z,31.22
2023-05-05T00:58:17.083Z,31.21
2023-05-05T00:59:17.134Z,31.23
2023-05-05T01:00:17.163Z,31.20
2023-05-05T01:01:17.202Z,31.22
2023-05-05T01:02:17.223Z,31.19
2023-05-05T01:03:17.429Z,31.22
2023-05-05T01:04:17.279Z,31.20
2023-05-05T01:05:17.284Z,31.20
2023-05-05T01:06:17.306Z,31.20
2023-05-05T01:07:17.389Z,31.21
2023-05-05T01:08:17.398Z,31.20
2023-05-05T01:09:17.424Z,31.20
2023-05-05T01:10:20.184Z,31.22
2023-05-05T01:11:17.463Z,31.20
2023-05-05T01:12:17.458Z,31.17
2023-05-05T01:13:17.427Z,31.18
2023-05-05T01:14:17.457Z,31.15
2023-05-05T01:15:17.423Z,31.16
2023-05-05T01:16:17.484Z,31.18
2023-05-05T01:17:17.416Z,31.16
2023-05-05T01:18:17.391Z,31.17
2023-05-05T01:19:17.391Z,31.14
2023-05-05T01:20:17.390Z,31.19
2023-05-05T01:21:17.398Z,31.14
2023-05-05T01:22:17.368Z,31.16
2023-05-05T01:23:17.374Z,31.14
2023-05-05T01:24:17.366Z,31.17
2023-05-05T01:25:17.349Z,31.13
2023-05-05T01:26:17.373Z,31.16
2023-05-05T01:27:17.346Z,31.14
2023-05-05T01:28:17.357Z,31.16
2023-05-05T01:29:17.349Z,31.12
2023-05-05T01:30:17.328Z,31.13
2023-05-05T01:31:17.355Z,31.12
2023-05-05T01:32:17.302Z,31.11
2023-05-05T01:33:17.285Z,31.10
2023-05-05T01:34:17.300Z,31.14
2023-05-05T01:35:17.301Z,31.13
2023-05-05T01:36:17.275Z,31.11
2023-05-05T01:37:17.241Z,31.11
2023-05-05T01:38:17.260Z,31.09
2023-05-05T01:39:17.249Z,31.10
2023-05-05T01:40:17.271Z,31.10
2023-05-05T01:41:17.229Z,31.08
2023-05-05T01:42:17.209Z,31.06
2023-05-05T01:43:17.221Z,31.08
2023-05-05T01:44:17.221Z,31.10
2023-05-05T01:45:17.191Z,31.07
2023-05-05T01:46:17.294Z,31.08
2023-05-05T01:47:17.206Z,31.09
2023-05-05T01:48:17.189Z,31.07
2023-05-05T01:49:17.279Z,31.09
2023-05-05T01:50:17.198Z,31.07
2023-05-05T01:51:17.171Z,31.05
2023-05-05T01:52:17.175Z,31.09
2023-05-05T01:53:17.148Z,31.08
2023-05-05T01:54:17.146Z,31.10
2023-05-05T01:55:17.152Z,31.08
2023-05-05T01:56:17.130Z,31.05
2023-05-05T01:57:17.134Z,31.07
2023-05-05T01:58:17.129Z,31.05
2023-05-05T01:59:17.145Z,30.99
2023-05-05T02:00:17.189Z,31.04
2023-05-05T02:01:17.243Z,31.03
2023-05-05T02:02:17.259Z,31.04
2023-05-05T02:03:17.441Z,31.04
2023-05-05T02:04:17.314Z,31.04
2023-05-05T02:05:17.393Z,31.04
2023-05-05T02:06:17.401Z,31.03
2023-05-05T02:07:17.465Z,31.02
2023-05-05T02:08:17.491Z,31.04
2023-05-05T02:09:17.531Z,31.03
2023-05-05T02:10:17.558Z,31.01
2023-05-05T02:11:17.584Z,31.04
2023-05-05T02:12:17.614Z,30.99
2023-05-05T02:13:17.798Z,31.03
2023-05-05T02:14:17.703Z,30.99
2023-05-05T02:15:17.741Z,31.03
2023-05-05T02:16:17.974Z,30.95
2023-05-05T02:17:17.821Z,30.99
2023-05-05T02:18:17.885Z,31.00
2023-05-05T02:19:17.931Z,30.99
2023-05-05T02:20:17.959Z,30.98
2023-05-05T02:21:18.015Z,31.00
2023-05-05T02:22:18.015Z,30.98
2023-05-05T02:23:18.106Z,30.94
2023-05-05T02:24:18.109Z,30.97
2023-05-05T02:25:18.158Z,30.97
2023-05-05T02:26:18.191Z,30.95
2023-05-05T02:27:18.235Z,30.96
2023-05-05T02:28:18.323Z,30.99
2023-05-05T02:29:18.325Z,30.95
2023-05-05T02:30:18.373Z,30.95
2023-05-05T02:31:18.428Z,30.93
2023-05-05T02:32:18.416Z,30.97
2023-05-05T02:33:18.440Z,30.92
2023-05-05T02:34:18.567Z,30.97
2023-05-05T02:35:18.522Z,30.93
2023-05-05T02:36:18.574Z,30.95
2023-05-05T02:37:18.611Z,30.92
2023-05-05T02:38:18.650Z,30.94
2023-05-05T02:39:18.687Z,30.93
2023-05-05T02:40:18.743Z,30.93
2023-05-05T02:41:18.780Z,30.94
2023-05-05T02:42:18.829Z,30.91
2023-05-05T02:43:18.841Z,30.91
2023-05-05T02:44:18.894Z,30.87
2023-05-05T02:45:18.947Z,30.91
2023-05-05T02:46:18.993Z,30.91
2023-05-05T02:47:19.017Z,30.88
2023-05-05T02:48:19.045Z,30.91
2023-05-05T02:49:19.067Z,30.89
2023-05-05T02:50:19.145Z,30.92
2023-05-05T02:51:19.146Z,30.90
2023-05-05T02:52:19.199Z,30.89
2023-05-05T02:53:19.229Z,30.90
2023-05-05T02:54:19.263Z,30.90
2023-05-05T02:55:19.328Z,30.88
2023-05-05T02:56:19.374Z,30.84
2023-05-05T02:57:19.381Z,30.86
2023-05-05T02:58:19.400Z,30.85
2023-05-05T02:59:19.484Z,30.81
2023-05-05T03:00:19.506Z,30.81
2023-05-05T03:01:19.596Z,30.72
2023-05-05T03:02:19.617Z,30.72
2023-05-05T03:03:19.700Z,30.58
2023-05-05T03:04:19.661Z,30.78
2023-05-05T03:05:19.685Z,30.82
2023-05-05T03:06:19.722Z,30.83
2023-05-05T03:07:19.740Z,30.83
2023-05-05T03:08:19.798Z,30.84
2023-05-05T03:09:19.825Z,30.79
2023-05-05T03:10:19.827Z,30.82
2023-05-05T03:11:19.880Z,30.80
2023-05-05T03:12:19.873Z,30.75
2023-05-05T03:13:19.923Z,30.76
2023-05-05T03:14:19.910Z,30.77
2023-05-05T03:15:19.948Z,30.75
2023-05-05T03:16:20.030Z,30.69
2023-05-05T03:17:19.953Z,30.72
2023-05-05T03:18:19.990Z,30.69
2023-05-05T03:19:20.014Z,30.65
2023-05-05T03:20:19.999Z,30.65
2023-05-05T03:21:20.052Z,30.64
2023-05-05T03:22:20.033Z,30.60
2023-05-05T03:23:20.037Z,30.58
2023-05-05T03:24:20.024Z,30.60
2023-05-05T03:25:19.998Z,30.57
2023-05-05T03:26:20.036Z,30.55
2023-05-05T03:27:20.007Z,30.53
2023-05-05T03:28:20.043Z,30.52
2023-05-05T03:29:20.010Z,30.52
2023-05-05T03:30:20.031Z,30.49
2023-05-05T03:31:20.029Z,30.47
2023-05-05T03:32:19.994Z,30.46
2023-05-05T03:33:20.000Z,30.43
2023-05-05T03:34:20.000Z,30.42
2023-05-05T03:35:20.001Z,30.42
2023-05-05T03:36:20.025Z,30.40
2023-05-05T03:37:20.026Z,30.38
2023-05-05T03:38:20.022Z,30.43
2023-05-05T03:39:20.012Z,30.41
2023-05-05T03:40:21.021Z,30.41
2023-05-05T03:41:20.016Z,30.39
2023-05-05T03:42:19.997Z,30.42
2023-05-05T03:43:19.994Z,30.39
2023-05-05T03:44:20.006Z,30.39
2023-05-05T03:45:19.977Z,30.39
2023-05-05T03:46:20.004Z,30.38
2023-05-05T03:47:19.985Z,30.38
2023-05-05T03:48:19.974Z,30.38
2023-05-05T03:49:19.958Z,30.38
2023-05-05T03:50:19.928Z,30.40
2023-05-05T03:51:20.051Z,30.40
2023-05-05T03:52:19.931Z,30.39
2023-05-05T03:53:19.923Z,30.39
2023-05-05T03:54:19.926Z,30.41
2023-05-05T03:55:19.933Z,30.41
2023-05-05T03:56:19.906Z,30.40
2023-05-05T03:57:19.891Z,30.40
2023-05-05T03:58:19.913Z,30.41
2023-05-05T03:59:19.889Z,30.39
2023-05-05T04:00:19.873Z,30.37
2023-05-05T04:01:19.848Z,30.34
2023-05-05T04:02:20.036Z,30.33
2023-05-05T04:03:19.965Z,30.38
2023-05-05T04:04:19.845Z,30.35
2023-05-05T04:05:19.838Z,30.37
2023-05-05T04:06:19.839Z,30.38
2023-05-05T04:07:19.829Z,30.35
2023-05-05T04:08:19.839Z,30.40
2023-05-05T04:09:19.822Z,30.37
2023-05-05T04:10:19.818Z,30.37
2023-05-05T04:11:19.791Z,30.40
2023-05-05T04:12:19.809Z,30.37
2023-05-05T04:13:19.789Z,30.37
2023-05-05T04:14:19.748Z,30.39
2023-05-05T04:15:19.772Z,30.34
2023-05-05T04:16:19.842Z,30.36
2023-05-05T04:17:19.749Z,30.39
2023-05-05T04:18:19.757Z,30.36
2023-05-05T04:19:19.734Z,30.36
2023-05-05T04:20:19.730Z,30.38
2023-05-05T04:21:19.732Z,30.35
2023-05-05T04:22:19.711Z,30.33
2023-05-05T04:23:19.724Z,30.35
2023-05-05T04:24:19.725Z,30.34
2023-05-05T04:25:19.705Z,30.36
2023-05-05T04:26:19.667Z,30.32
2023-05-05T04:27:19.679Z,30.35
2023-05-05T04:28:21.055Z,30.34
2023-05-05T04:29:19.702Z,30.34
2023-05-05T04:30:19.674Z,30.37
2023-05-05T04:31:19.705Z,30.38
2023-05-05T04:32:19.676Z,30.33
2023-05-05T04:33:19.675Z,30.34
2023-05-05T04:34:19.646Z,30.35
2023-05-05T04:35:19.636Z,30.35
2023-05-05T04:36:19.618Z,30.33
2023-05-05T04:37:19.625Z,30.35
2023-05-05T04:38:19.644Z,30.32
2023-05-05T04:39:19.605Z,30.35
2023-05-05T04:40:19.605Z,30.33
2023-05-05T04:41:19.588Z,30.35
2023-05-05T04:42:19.566Z,30.34
2023-05-05T04:43:19.547Z,30.34
2023-05-05T04:44:19.566Z,30.34
2023-05-05T04:45:19.570Z,30.34
2023-05-05T04:46:19.597Z,30.31
2023-05-05T04:47:19.544Z,30.30
2023-05-05T04:48:19.538Z,30.31
2023-05-05T04:49:19.508Z,30.37
2023-05-05T04:50:19.494Z,30.32
2023-05-05T04:51:19.517Z,30.36
2023-05-05T04:52:19.502Z,30.36
2023-05-05T04:53:19.512Z,30.35
2023-05-05T04:54:19.519Z,30.33
2023-05-05T04:55:19.529Z,30.32
2023-05-05T04:56:19.501Z,30.34
2023-05-05T04:57:19.555Z,30.33
2023-05-05T04:58:19.520Z,30.35
2023-05-05T04:59:19.573Z,30.35
2023-05-05T05:00:19.589Z,30.43
2023-05-05T05:01:26.647Z,30.38
2023-05-05T05:02:19.720Z,30.40
2023-05-05T05:03:19.677Z,30.38
2023-05-05T05:04:19.577Z,30.36
2023-05-05T05:05:19.565Z,30.35
2023-05-05T05:06:19.564Z,30.37
2023-05-05T05:07:19.566Z,30.40
2023-05-05T05:08:19.540Z,30.36
2023-05-05T05:09:19.523Z,30.38
2023-05-05T05:10:19.548Z,30.43
2023-05-05T05:11:19.529Z,30.44
2023-05-05T05:12:19.527Z,30.51
2023-05-05T05:13:19.525Z,30.49
2023-05-05T05:14:19.524Z,30.42
2023-05-05T05:15:19.497Z,30.42
2023-05-05T05:16:19.545Z,30.40
2023-05-05T05:17:19.483Z,30.41
2023-05-05T05:18:19.488Z,30.37
2023-05-05T05:19:19.481Z,30.47
2023-05-05T05:20:19.483Z,30.43
2023-05-05T05:21:19.454Z,30.46
2023-05-05T05:22:19.465Z,30.39
2023-05-05T05:23:19.475Z,30.41
2023-05-05T05:24:19.434Z,30.36
2023-05-05T05:25:19.449Z,29.57
2023-05-05T05:26:19.404Z,29.26
2023-05-05T05:27:19.425Z,29.16
2023-05-05T05:28:19.407Z,29.00
2023-05-05T05:29:19.414Z,29.10
2023-05-05T05:30:19.407Z,29.35
2023-05-05T05:31:19.449Z,29.52
2023-05-05T05:32:19.547Z,29.23
2023-05-05T05:33:19.393Z,29.64
2023-05-05T05:34:19.363Z,30.19
2023-05-05T05:35:19.371Z,29.96
2023-05-05T05:36:19.451Z,30.34
2023-05-05T05:37:19.448Z,30.63
2023-05-05T05:38:19.391Z,30.49
2023-05-05T05:39:19.326Z,30.84
2023-05-05T05:40:19.356Z,31.01
2023-05-05T05:41:19.358Z,31.17
2023-05-05T05:42:19.579Z,30.61
2023-05-05T05:43:19.322Z,29.73
2023-05-05T05:44:19.299Z,29.63
2023-05-05T05:45:19.329Z,29.60
2023-05-05T05:46:26.348Z,29.98
2023-05-05T05:47:19.559Z,29.85
2023-05-05T05:48:19.278Z,29.45
2023-05-05T05:49:19.279Z,29.71
2023-05-05T05:50:19.242Z,29.59
2023-05-05T05:51:19.229Z,29.95
2023-05-05T05:52:19.232Z,29.72
2023-05-05T05:53:19.228Z,29.60
2023-05-05T05:54:19.225Z,30.43
2023-05-05T05:55:19.227Z,29.56
2023-05-05T05:56:19.220Z,29.64
2023-05-05T05:57:19.222Z,29.96
2023-05-05T05:58:19.244Z,30.90
2023-05-05T05:59:19.197Z,30.65
2023-05-05T06:00:19.202Z,31.51
2023-05-05T06:01:19.195Z,31.76
2023-05-05T06:02:19.279Z,31.85
2023-05-05T06:03:19.284Z,31.84
2023-05-05T06:04:19.206Z,31.94
2023-05-05T06:05:19.152Z,31.87
2023-05-05T06:06:19.142Z,31.90
2023-05-05T06:07:19.106Z,31.94
2023-05-05T06:08:19.121Z,31.87
2023-05-05T06:09:19.133Z,31.40
2023-05-05T06:10:27.770Z,31.94
2023-05-05T06:11:20.110Z,31.97
2023-05-05T06:12:19.113Z,31.75
2023-05-05T06:13:19.091Z,32.21
2023-05-05T06:14:20.088Z,32.22
2023-05-05T06:15:19.083Z,32.20
2023-05-05T06:16:19.121Z,32.29
2023-05-05T06:17:19.083Z,32.15
2023-05-05T06:18:19.178Z,32.22
2023-05-05T06:19:19.070Z,32.39
2023-05-05T06:20:19.084Z,32.44
2023-05-05T06:21:19.054Z,32.44
2023-05-05T06:22:19.044Z,32.52
2023-05-05T06:23:19.104Z,32.48
2023-05-05T06:24:19.213Z,32.49
2023-05-05T06:25:19.236Z,32.51
2023-05-05T06:26:19.295Z,32.51
2023-05-05T06:27:19.321Z,32.52
2023-05-05T06:28:19.614Z,32.42
2023-05-05T06:29:19.446Z,32.42
2023-05-05T06:30:19.489Z,32.58
2023-05-05T06:31:19.533Z,32.63
2023-05-05T06:32:19.600Z,32.64
2023-05-05T06:33:19.680Z,32.68
2023-05-05T06:34:19.682Z,32.63
2023-05-05T06:35:19.751Z,32.47
2023-05-05T06:36:19.772Z,32.12
2023-05-05T06:37:19.868Z,32.52
2023-05-05T06:38:20.037Z,31.66
2023-05-05T06:39:19.975Z,31.43
2023-05-05T06:40:20.002Z,32.01
2023-05-05T06:41:20.076Z,32.29
2023-05-05T06:42:20.146Z,32.40
2023-05-05T06:43:20.214Z,32.55
2023-05-05T06:44:20.252Z,32.82
2023-05-05T06:45:20.312Z,32.28
2023-05-05T06:46:21.160Z,32.79
2023-05-05T06:47:20.482Z,33.04
2023-05-05T06:48:20.590Z,33.23
2023-05-05T06:49:20.626Z,32.49
2023-05-05T06:50:20.669Z,31.93
2023-05-05T06:51:20.645Z,31.38
2023-05-05T06:52:20.735Z,30.88
2023-05-05T06:53:21.090Z,30.57
2023-05-05T06:54:20.872Z,30.78
2023-05-05T06:55:20.933Z,29.54
2023-05-05T06:56:20.975Z,30.00
2023-05-05T06:57:21.058Z,29.82
2023-05-05T06:58:21.124Z,30.36
2023-05-05T06:59:21.131Z,30.18
2023-05-05T07:00:21.198Z,29.46
2023-05-05T07:01:21.294Z,29.64
2023-05-05T07:02:21.234Z,29.84
2023-05-05T07:03:21.400Z,28.33
2023-05-05T07:04:21.350Z,29.07
2023-05-05T07:05:21.206Z,28.54
2023-05-05T07:06:21.241Z,28.56
2023-05-05T07:07:21.202Z,28.66
2023-05-05T07:08:21.222Z,29.19
2023-05-05T07:09:21.212Z,28.18
2023-05-05T07:10:21.267Z,28.12
2023-05-05T07:11:21.225Z,28.54
2023-05-05T07:12:21.210Z,28.75
2023-05-05T07:13:21.195Z,28.69
2023-05-05T07:14:23.401Z,28.45
2023-05-05T07:15:28.866Z,28.27
2023-05-05T07:16:22.245Z,28.66
2023-05-05T07:17:21.228Z,28.60
2023-05-05T07:18:21.239Z,28.52
2023-05-05T07:19:21.236Z,28.25
2023-05-05T07:20:21.169Z,28.27
2023-05-05T07:21:21.175Z,28.42
2023-05-05T07:22:21.192Z,27.93
2023-05-05T07:23:21.157Z,28.07
2023-05-05T07:24:21.194Z,27.75
2023-05-05T07:25:21.239Z,28.05
2023-05-05T07:26:21.211Z,27.88
2023-05-05T07:27:21.134Z,27.60
2023-05-05T07:28:21.131Z,28.69
2023-05-05T07:29:21.098Z,28.68
2023-05-05T07:30:21.449Z,28.51
2023-05-05T07:31:21.109Z,28.99
2023-05-05T07:32:21.191Z,29.25
2023-05-05T07:33:21.133Z,29.41
2023-05-05T07:34:21.120Z,29.39
2023-05-05T07:35:21.124Z,29.60
2023-05-05T07:36:21.058Z,29.55
2023-05-05T07:37:21.040Z,30.07
2023-05-05T07:38:21.054Z,30.26
2023-05-05T07:39:21.076Z,30.40
2023-05-05T07:40:21.043Z,30.20
2023-05-05T07:41:21.062Z,30.48
2023-05-05T07:42:21.074Z,30.38
2023-05-05T07:43:21.159Z,31.08
2023-05-05T07:44:21.228Z,31.31
2023-05-05T07:45:21.235Z,31.39
2023-05-05T07:46:21.364Z,31.40
2023-05-05T07:47:21.368Z,31.53
2023-05-05T07:48:21.403Z,31.55
2023-05-05T07:49:21.704Z,31.54
2023-05-05T07:50:21.514Z,31.51
2023-05-05T07:51:21.601Z,31.62
2023-05-05T07:52:33.232Z,31.68
2023-05-05T07:53:22.600Z,31.71
2023-05-05T07:54:21.561Z,31.65
2023-05-05T07:55:21.524Z,31.62
2023-05-05T07:56:21.844Z,31.56
2023-05-05T07:57:21.545Z,31.51
2023-05-05T07:58:21.567Z,31.38
2023-05-05T07:59:21.527Z,31.67
2023-05-05T08:00:37.775Z,31.59
2023-05-05T08:01:37.326Z,31.64
2023-05-05T08:02:37.412Z,31.61
2023-05-05T08:03:37.495Z,31.49
2023-05-05T08:04:37.347Z,31.49
2023-05-05T08:05:37.321Z,31.54
2023-05-05T08:06:37.421Z,31.57
2023-05-05T08:07:37.311Z,31.48
2023-05-05T08:08:37.319Z,31.39
2023-05-05T08:09:37.269Z,31.23
2023-05-05T08:10:37.278Z,31.23
2023-05-05T08:11:37.256Z,31.22
2023-05-05T08:12:37.295Z,31.11
2023-05-05T08:13:37.263Z,31.06
2023-05-05T08:14:37.288Z,30.97
2023-05-05T08:15:37.299Z,31.03
2023-05-05T08:16:37.292Z,30.75
2023-05-05T08:17:37.236Z,30.83
2023-05-05T08:18:37.239Z,29.53
2023-05-05T08:19:37.295Z,30.25
2023-05-05T08:20:37.225Z,30.23
2023-05-05T08:21:37.196Z,30.35
2023-05-05T08:22:37.258Z,30.23
2023-05-05T08:23:37.210Z,30.19
2023-05-05T08:24:37.184Z,30.26
2023-05-05T08:25:37.183Z,30.07
2023-05-05T08:26:37.193Z,29.99
2023-05-05T08:27:38.189Z,29.90
2023-05-05T08:28:37.200Z,29.84
2023-05-05T08:29:37.169Z,29.75
2023-05-05T08:30:37.159Z,29.79
2023-05-05T08:31:37.186Z,29.09
2023-05-05T08:32:37.299Z,29.08
2023-05-05T08:33:37.285Z,28.98
2023-05-05T08:34:37.248Z,29.04
2023-05-05T08:35:37.246Z,29.14
2023-05-05T08:36:37.816Z,29.06
2023-05-05T08:37:37.306Z,28.88
2023-05-05T08:38:37.372Z,28.83
2023-05-05T08:39:37.337Z,28.67
2023-05-05T08:40:37.500Z,28.54
2023-05-05T08:41:37.397Z,28.50
2023-05-05T08:42:39.034Z,28.50
2023-05-05T08:43:37.814Z,28.38
2023-05-05T08:44:37.486Z,28.33
2023-05-05T08:45:37.362Z,28.16
2023-05-05T08:46:37.386Z,28.06
2023-05-05T08:47:37.482Z,28.01
2023-05-05T08:48:37.803Z,28.00
2023-05-05T08:49:37.390Z,27.95
2023-05-05T08:50:37.571Z,28.25
2023-05-05T08:51:37.423Z,28.15
2023-05-05T08:52:37.455Z,28.46
2023-05-05T08:53:39.309Z,28.42
2023-05-05T08:54:37.511Z,28.64
2023-05-05T08:55:37.462Z,29.00
2023-05-05T08:56:37.446Z,29.00
2023-05-05T08:57:37.468Z,28.92
2023-05-05T08:58:37.812Z,29.07
2023-05-05T08:59:37.464Z,28.92
2023-05-05T09:00:37.442Z,29.09
2023-05-05T09:01:37.499Z,29.07
2023-05-05T09:02:37.905Z,29.02
2023-05-05T09:03:37.581Z,29.12
2023-05-05T09:04:37.552Z,29.12
2023-05-05T09:05:37.618Z,29.01
2023-05-05T09:06:37.673Z,28.98
2023-05-05T09:07:37.726Z,29.10
2023-05-05T09:08:37.793Z,28.93
2023-05-05T09:09:37.847Z,28.92
2023-05-05T09:10:38.045Z,29.09
2023-05-05T09:11:37.926Z,29.27
2023-05-05T09:12:38.049Z,29.11
2023-05-05T09:13:39.345Z,29.06
2023-05-05T09:14:38.233Z,28.94
2023-05-05T09:15:38.204Z,29.00
2023-05-05T09:16:38.315Z,29.19
2023-05-05T09:17:38.370Z,29.28
2023-05-05T09:18:38.490Z,29.09
2023-05-05T09:19:38.439Z,29.26
2023-05-05T09:20:38.482Z,28.98
2023-05-05T09:21:38.563Z,28.85
2023-05-05T09:22:38.704Z,28.77
2023-05-05T09:23:38.976Z,28.55
2023-05-05T09:24:38.766Z,28.26
2023-05-05T09:25:38.830Z,28.24
2023-05-05T09:26:38.942Z,27.87
2023-05-05T09:27:38.858Z,28.07
2023-05-05T09:28:39.332Z,28.10
2023-05-05T09:29:39.012Z,28.05
2023-05-05T09:30:39.123Z,27.91
2023-05-05T09:31:39.067Z,27.71
2023-05-05T09:32:39.211Z,27.63
2023-05-05T09:33:39.314Z,27.58
2023-05-05T09:34:39.192Z,27.21
2023-05-05T09:35:39.100Z,27.29
2023-05-05T09:36:39.143Z,26.90
2023-05-05T09:37:39.231Z,26.92
2023-05-05T09:38:39.294Z,27.07
2023-05-05T09:39:39.337Z,27.38
2023-05-05T09:40:39.416Z,27.47
2023-05-05T09:41:39.464Z,27.47
2023-05-05T09:42:39.566Z,27.61
2023-05-05T09:43:39.852Z,27.08
2023-05-05T09:44:39.635Z,26.91
2023-05-05T09:45:39.680Z,27.19
2023-05-05T09:46:39.819Z,27.49
2023-05-05T09:47:39.740Z,27.12
2023-05-05T09:48:39.812Z,26.98
2023-05-05T09:49:39.743Z,27.13
2023-05-05T09:50:39.705Z,26.96
2023-05-05T09:51:39.705Z,27.04
2023-05-05T09:52:39.765Z,27.21
2023-05-05T09:53:39.832Z,27.17
2023-05-05T09:54:39.767Z,26.80
2023-05-05T09:55:39.815Z,26.60
2023-05-05T09:56:39.776Z,26.82
2023-05-05T09:57:39.855Z,26.87
2023-05-05T09:58:39.801Z,26.93
2023-05-05T09:59:39.775Z,27.08
2023-05-05T10:00:39.913Z,27.28
2023-05-05T10:01:39.885Z,27.44
2023-05-05T10:02:39.943Z,27.53
2023-05-05T10:03:40.331Z,27.42
2023-05-05T10:04:39.995Z,27.46
2023-05-05T10:05:40.110Z,27.34
2023-05-05T10:06:40.131Z,27.19
2023-05-05T10:07:40.113Z,26.98
2023-05-05T10:08:40.226Z,27.08
2023-05-05T10:09:40.280Z,27.23
2023-05-05T10:10:40.299Z,27.29
2023-05-05T10:11:40.404Z,27.22
2023-05-05T10:12:40.579Z,27.34
2023-05-05T10:13:40.520Z,27.47
2023-05-05T10:14:40.613Z,26.96
2023-05-05T10:15:40.580Z,26.38
2023-05-05T10:16:40.810Z,26.73
2023-05-05T10:17:44.016Z,26.78
2023-05-05T10:18:41.819Z,26.85
2023-05-05T10:19:40.713Z,26.67
2023-05-05T10:20:40.679Z,26.35
2023-05-05T10:21:42.074Z,26.85
2023-05-05T10:22:40.780Z,26.39
2023-05-05T10:23:40.790Z,26.66
2023-05-05T10:24:40.890Z,26.80
2023-05-05T10:25:40.900Z,27.08
2023-05-05T10:26:40.920Z,27.50
2023-05-05T10:27:40.978Z,27.43
2023-05-05T10:28:41.021Z,27.48
2023-05-05T10:29:41.065Z,27.59
2023-05-05T10:30:41.201Z,27.64
2023-05-05T10:31:41.149Z,27.71
2023-05-05T10:33:41.256Z,27.85
2023-05-05T10:34:41.207Z,27.87
2023-05-05T10:35:41.185Z,27.89
2023-05-05T10:36:41.161Z,27.90
2023-05-05T10:37:41.162Z,27.91
2023-05-05T10:38:41.388Z,27.95
2023-05-05T10:39:41.206Z,27.98
2023-05-05T10:40:41.186Z,27.98
2023-05-05T10:41:41.127Z,28.02
2023-05-05T10:42:41.137Z,28.03
2023-05-05T10:43:41.091Z,28.04
2023-05-05T10:44:41.351Z,28.05
2023-05-05T10:45:41.181Z,28.09
2023-05-05T10:46:41.193Z,28.08
2023-05-05T10:47:41.090Z,28.09
2023-05-05T10:48:41.110Z,28.11
2023-05-05T10:49:41.047Z,28.12
2023-05-05T10:50:41.059Z,28.15
2023-05-05T10:51:41.386Z,28.14
2023-05-05T10:52:41.056Z,28.14
2023-05-05T10:53:41.078Z,28.17
2023-05-05T10:54:41.015Z,28.18
2023-05-05T10:55:41.001Z,28.17
2023-05-05T10:56:40.997Z,28.17
2023-05-05T10:57:40.995Z,28.20
2023-05-05T10:58:58.331Z,28.19
2023-05-05T10:59:42.030Z,28.24
2023-05-05T11:00:41.051Z,28.22
2023-05-05T11:01:41.030Z,28.22
2023-05-05T11:02:41.042Z,28.24
2023-05-05T11:03:41.002Z,28.25
2023-05-05T11:04:41.141Z,28.22
2023-05-05T11:05:41.054Z,28.23
2023-05-05T11:06:41.105Z,28.25
2023-05-05T11:07:41.087Z,28.28
2023-05-05T11:08:41.159Z,28.26
2023-05-05T11:09:41.221Z,28.30
2023-05-05T11:10:41.289Z,28.32
2023-05-05T11:11:41.286Z,28.30
2023-05-05T11:12:41.410Z,28.30
2023-05-05T11:13:41.358Z,28.31
2023-05-05T11:14:41.856Z,28.31
2023-05-05T11:15:41.498Z,28.36
2023-05-05T11:16:41.499Z,28.33
2023-05-05T11:17:41.548Z,28.36
2023-05-05T11:18:41.733Z,28.40
2023-05-05T11:19:41.880Z,28.37
2023-05-05T11:20:41.698Z,28.40
2023-05-05T11:21:41.719Z,28.39
2023-05-05T11:22:41.752Z,28.39
2023-05-05T11:23:41.812Z,28.38
2023-05-05T11:24:42.361Z,28.40
2023-05-05T11:25:41.895Z,28.40
2023-05-05T11:26:41.969Z,28.40
2023-05-05T11:27:42.015Z,28.42
2023-05-05T11:28:42.068Z,28.42
2023-05-05T11:29:42.346Z,28.42
2023-05-05T11:30:42.232Z,28.43
2023-05-05T11:31:42.879Z,28.43
2023-05-05T11:32:42.318Z,28.46
2023-05-05T11:33:42.346Z,28.48
2023-05-05T11:34:43.408Z,28.45
2023-05-05T11:35:42.461Z,28.49
2023-05-05T11:36:42.493Z,28.48
2023-05-05T11:37:42.564Z,28.50
2023-05-05T11:38:42.655Z,28.51
2023-05-05T11:39:42.692Z,28.53
2023-05-05T11:40:42.750Z,28.54
2023-05-05T11:41:42.817Z,28.52
2023-05-05T11:42:42.861Z,28.52
2023-05-05T11:43:42.885Z,28.55
2023-05-05T11:44:42.958Z,28.55
2023-05-05T11:45:43.014Z,28.54
2023-05-05T11:46:43.190Z,28.54
2023-05-05T11:47:43.143Z,28.56
2023-05-05T11:48:43.230Z,28.56
2023-05-05T11:49:43.299Z,28.58
2023-05-05T11:50:43.492Z,28.61
2023-05-05T11:51:43.387Z,28.62
2023-05-05T11:52:43.478Z,28.59
2023-05-05T11:53:43.502Z,28.61
2023-05-05T11:54:43.591Z,28.60
2023-05-05T11:55:43.655Z,28.61
2023-05-05T11:56:43.726Z,28.62
2023-05-05T11:57:43.781Z,28.64
2023-05-05T11:58:43.822Z,28.61
2023-05-05T11:59:43.840Z,28.63
2023-05-05T12:00:43.936Z,28.62
2023-05-05T12:01:43.997Z,28.63
2023-05-05T12:02:44.184Z,28.64
2023-05-05T12:03:44.241Z,28.64
2023-05-05T12:04:44.280Z,28.64
2023-05-05T12:05:44.241Z,28.62
2023-05-05T12:06:44.286Z,28.65
2023-05-05T12:07:44.340Z,28.65
2023-05-05T12:08:44.414Z,28.66
2023-05-05T12:09:44.487Z,28.66
2023-05-05T12:10:44.552Z,28.66
2023-05-05T12:11:44.602Z,28.67
2023-05-05T12:12:44.676Z,28.64
2023-05-05T12:13:44.718Z,28.66
2023-05-05T12:14:44.781Z,28.69
2023-05-05T12:15:44.849Z,28.69
2023-05-05T12:16:44.991Z,28.70
2023-05-05T12:17:45.200Z,28.71
2023-05-05T12:18:45.014Z,28.72
2023-05-05T12:19:45.065Z,28.73
2023-05-05T12:20:45.131Z,28.75
2023-05-05T12:21:45.187Z,28.77
2023-05-05T12:22:45.291Z,28.79
2023-05-05T12:23:45.383Z,28.79
2023-05-05T12:24:45.415Z,28.82
2023-05-05T12:25:45.398Z,28.82
2023-05-05T12:26:45.531Z,28.80
2023-05-05T12:27:45.542Z,28.82
2023-05-05T12:28:45.580Z,28.83
2023-05-05T12:29:45.650Z,28.84
2023-05-05T12:30:45.760Z,28.83
2023-05-05T12:31:45.785Z,28.85
2023-05-05T12:32:45.844Z,28.86
2023-05-05T12:33:45.884Z,28.86
2023-05-05T12:34:45.937Z,28.82
2023-05-05T12:35:45.941Z,28.86
2023-05-05T12:36:45.998Z,28.82
2023-05-05T12:37:46.020Z,28.86
2023-05-05T12:38:46.151Z,28.86
2023-05-05T12:39:46.202Z,28.89
2023-05-05T12:40:46.181Z,28.88
2023-05-05T12:41:46.214Z,28.88
2023-05-05T12:42:46.452Z,28.88
2023-05-05T12:43:46.312Z,28.88
2023-05-05T12:44:46.351Z,28.89
2023-05-05T12:45:46.438Z,28.91
2023-05-05T12:46:46.386Z,28.93
2023-05-05T12:47:46.452Z,28.95
2023-05-05T12:48:48.358Z,28.96
2023-05-05T12:49:46.544Z,28.96
2023-05-05T12:50:46.546Z,28.93
2023-05-05T12:51:46.586Z,28.92
2023-05-05T12:52:46.629Z,28.92
2023-05-05T12:53:46.717Z,28.96